createdAt,value
2023-02-14T00:01:30.430Z,4.44
2023-02-14T00:06:35.592Z,4.48
2023-02-14T00:11:42.549Z,4.52
2023-02-14T00:16:44.703Z,4.58
2023-02-14T00:21:50.434Z,4.62
2023-02-14T00:26:54.650Z,4.68
2023-02-14T00:31:59.481Z,4.72
2023-02-14T00:37:04.419Z,4.75
2023-02-14T00:42:08.296Z,4.80
2023-02-14T00:47:15.639Z,4.80
2023-02-14T00:52:17.351Z,4.81
2023-02-14T00:57:19.192Z,4.83
2023-02-14T01:02:24.339Z,4.85
2023-02-14T01:07:30.323Z,4.85
2023-02-14T01:12:35.441Z,4.85
2023-02-14T01:17:43.412Z,4.85
2023-02-14T01:22:49.060Z,4.87
2023-02-14T01:27:51.151Z,4.88
2023-02-14T01:32:57.584Z,4.91
2023-02-14T01:38:02.413Z,4.91
2023-02-14T01:43:04.646Z,4.93
2023-02-14T01:48:09.844Z,4.93
2023-02-14T01:53:24.721Z,4.94
2023-02-14T01:58:28.437Z,4.94
2023-02-14T02:03:39.964Z,4.97
2023-02-14T02:08:52.831Z,4.96
2023-02-14T02:13:55.400Z,4.93
2023-02-14T02:19:16.997Z,4.95
2023-02-14T02:24:26.900Z,4.91
2023-02-14T02:29:49.173Z,4.90
2023-02-14T02:35:21.894Z,4.88
2023-02-14T02:40:39.848Z,4.89
2023-02-14T02:46:11.282Z,4.89
2023-02-14T02:51:46.384Z,4.86
2023-02-14T02:56:56.035Z,4.85
2023-02-14T03:02:16.566Z,4.83
2023-02-14T03:07:37.024Z,4.82
2023-02-14T03:13:22.365Z,4.81
2023-02-14T03:18:48.350Z,4.78
2023-02-14T03:24:08.259Z,4.79
2023-02-14T03:29:29.322Z,4.76
2023-02-14T03:34:47.591Z,4.69
2023-02-14T03:39:55.544Z,4.64
2023-02-14T03:45:01.400Z,4.61
2023-02-14T03:50:12.738Z,4.55
2023-02-14T03:55:20.315Z,4.48
2023-02-14T04:00:24.890Z,4.45
2023-02-14T04:05:28.755Z,4.32
2023-02-14T04:10:33.205Z,4.17
2023-02-14T04:15:35.005Z,4.01
2023-02-14T04:20:38.974Z,3.83
2023-02-14T04:25:45.607Z,3.62
2023-02-14T04:30:52.066Z,3.42
2023-02-14T04:35:56.887Z,3.22
2023-02-14T04:41:01.338Z,3.07
2023-02-14T04:46:07.932Z,2.92
2023-02-14T04:51:09.776Z,2.79
2023-02-14T04:56:13.833Z,2.70
2023-02-14T05:01:15.855Z,2.60
2023-02-14T05:06:20.063Z,2.51
2023-02-14T05:11:24.360Z,2.41
2023-02-14T05:16:26.185Z,2.43
2023-02-14T05:21:33.076Z,2.32
2023-02-14T05:26:37.840Z,2.31
2023-02-14T05:31:46.231Z,2.31
2023-02-14T05:36:50.152Z,2.25
2023-02-14T05:41:51.983Z,2.18
2023-02-14T05:46:56.353Z,2.17
2023-02-14T05:52:01.998Z,2.15
2023-02-14T05:57:03.740Z,2.21
2023-02-14T06:02:07.100Z,2.32
2023-02-14T06:07:08.980Z,2.29
2023-02-14T06:12:10.731Z,2.24
2023-02-14T06:17:12.419Z,2.18
2023-02-14T06:22:18.370Z,2.03
2023-02-14T06:27:20.022Z,1.95
2023-02-14T06:32:21.919Z,1.87
2023-02-14T06:37:25.646Z,1.83
2023-02-14T06:42:27.523Z,1.83
2023-02-14T06:47:29.448Z,1.80
2023-02-14T06:52:35.009Z,1.81
2023-02-14T06:57:40.219Z,1.85
2023-02-14T07:02:42.307Z,1.90
2023-02-14T07:07:46.705Z,1.89
2023-02-14T07:12:50.249Z,1.85
2023-02-14T07:17:54.341Z,1.84
2023-02-14T07:23:00.815Z,1.89
2023-02-14T07:28:04.778Z,1.95
2023-02-14T07:33:10.164Z,2.00
2023-02-14T07:38:17.365Z,2.04
2023-02-14T07:43:21.284Z,2.09
2023-02-14T07:48:25.334Z,2.18
2023-02-14T07:53:27.091Z,2.25
2023-02-14T07:58:28.774Z,2.36
2023-02-14T08:03:30.428Z,2.49
2023-02-14T08:08:36.703Z,2.61
2023-02-14T08:13:38.527Z,2.74
2023-02-14T08:18:42.120Z,2.83
2023-02-14T08:23:47.671Z,2.97
2023-02-14T08:28:49.503Z,3.09
2023-02-14T08:33:54.640Z,3.25
2023-02-14T08:38:57.842Z,3.42
2023-02-14T08:44:00.094Z,3.48
2023-02-14T08:49:01.971Z,3.55
2023-02-14T08:54:04.700Z,3.64
2023-02-14T08:59:09.011Z,3.70
2023-02-14T09:04:13.287Z,3.76
2023-02-14T09:09:19.427Z,3.86
2023-02-14T09:14:21.774Z,3.94
2023-02-14T09:19:26.492Z,4.04
2023-02-14T09:24:31.158Z,4.12
2023-02-14T09:29:35.266Z,4.19
2023-02-14T09:34:39.474Z,4.29
2023-02-14T09:39:46.120Z,4.37
2023-02-14T09:44:52.548Z,4.52
2023-02-14T09:49:54.485Z,4.76
2023-02-14T09:55:01.348Z,4.85
2023-02-14T10:00:14.665Z,4.98
2023-02-14T10:05:24.001Z,5.18
2023-02-14T10:10:28.417Z,5.25
2023-02-14T10:15:36.627Z,5.47
2023-02-14T10:20:53.908Z,5.58
2023-02-14T10:26:03.458Z,5.80
2023-02-14T10:31:15.363Z,6.10
2023-02-14T10:36:34.448Z,6.16
2023-02-14T10:41:45.135Z,6.33
2023-02-14T10:47:13.055Z,6.31
2023-02-14T10:52:34.353Z,6.67
2023-02-14T10:57:46.605Z,6.88
2023-02-14T11:02:52.521Z,6.95
2023-02-14T11:07:59.198Z,7.14
2023-02-14T11:13:03.514Z,7.13
2023-02-14T11:18:31.816Z,7.33
2023-02-14T11:23:46.936Z,7.48
2023-02-14T11:29:00.772Z,7.62
2023-02-14T11:34:18.756Z,7.95
2023-02-14T11:39:40.247Z,8.21
2023-02-14T11:44:56.315Z,8.49
2023-02-14T11:50:10.964Z,9.17
2023-02-14T11:55:25.502Z,9.98
2023-02-14T12:00:32.633Z,10.61
2023-02-14T12:05:45.645Z,11.26
2023-02-14T12:11:20.574Z,11.81
2023-02-14T12:16:29.492Z,12.33
2023-02-14T12:21:50.244Z,12.53
2023-02-14T12:27:04.160Z,12.89
2023-02-14T12:32:18.849Z,13.09
2023-02-14T12:37:28.409Z,13.49
2023-02-14T12:42:42.477Z,13.72
2023-02-14T12:47:57.732Z,14.14
2023-02-14T12:53:04.583Z,14.45
2023-02-14T12:58:29.157Z,14.65
2023-02-14T13:03:33.489Z,14.96
2023-02-14T13:09:14.653Z,15.05
2023-02-14T13:14:31.060Z,15.35
2023-02-14T13:19:56.803Z,15.51
2023-02-14T13:25:03.930Z,15.48
2023-02-14T13:30:24.118Z,15.64
2023-02-14T13:35:29.081Z,16.06
2023-02-14T13:40:32.062Z,15.57
2023-02-14T13:45:35.571Z,16.08
2023-02-14T13:50:39.729Z,16.22
2023-02-14T13:55:44.334Z,16.60
2023-02-14T14:00:47.156Z,17.21
2023-02-14T14:06:03.830Z,17.37
2023-02-14T14:11:34.853Z,16.98
2023-02-14T14:16:41.654Z,17.23
2023-02-14T14:22:02.578Z,17.52
2023-02-14T14:27:19.766Z,17.74
2023-02-14T14:32:40.045Z,17.80
2023-02-14T14:37:54.618Z,17.84
2023-02-14T14:43:11.948Z,17.64
2023-02-14T14:48:21.011Z,17.94
2023-02-14T14:53:47.285Z,17.59
2023-02-14T14:58:51.566Z,16.94
2023-02-14T15:03:53.332Z,15.66
2023-02-14T15:08:56.564Z,14.61
2023-02-14T15:13:59.348Z,14.06
2023-02-14T15:19:13.276Z,13.81
2023-02-14T15:24:16.847Z,13.63
2023-02-14T15:29:24.890Z,13.05
2023-02-14T15:34:32.370Z,12.42
2023-02-14T15:39:44.935Z,11.96
2023-02-14T15:44:47.785Z,11.51
2023-02-14T15:49:54.661Z,11.01
2023-02-14T15:55:01.396Z,10.72
2023-02-14T16:00:12.611Z,10.48
2023-02-14T16:05:19.775Z,10.21
2023-02-14T16:10:30.168Z,9.99
2023-02-14T16:15:42.131Z,9.76
2023-02-14T16:20:51.369Z,9.60
2023-02-14T16:25:58.845Z,9.46
2023-02-14T16:31:03.090Z,9.98
2023-02-14T16:36:12.429Z,9.38
2023-02-14T16:41:19.497Z,9.03
2023-02-14T16:46:28.821Z,8.67
2023-02-14T16:51:33.102Z,8.39
2023-02-14T16:56:40.778Z,8.24
2023-02-14T17:01:49.986Z,8.05
2023-02-14T17:06:57.153Z,7.90
2023-02-14T17:12:04.780Z,7.71
2023-02-14T17:17:10.488Z,7.55
2023-02-14T17:22:14.932Z,7.37
2023-02-14T17:27:23.995Z,7.20
2023-02-14T17:32:28.181Z,7.06
2023-02-14T17:37:31.530Z,6.89
2023-02-14T17:42:36.569Z,6.72
2023-02-14T17:47:45.670Z,6.53
2023-02-14T17:52:58.529Z,6.39
2023-02-14T17:58:02.278Z,6.20
2023-02-14T18:03:04.710Z,6.05
2023-02-14T18:08:09.703Z,5.96
2023-02-14T18:13:12.513Z,5.89
2023-02-14T18:18:20.876Z,5.75
2023-02-14T18:23:25.038Z,5.64
2023-02-14T18:28:27.448Z,5.51
2023-02-14T18:33:34.036Z,5.38
2023-02-14T18:38:35.878Z,5.27
2023-02-14T18:43:37.693Z,5.17
2023-02-14T18:48:44.531Z,5.10
2023-02-14T18:53:47.005Z,4.94
2023-02-14T18:58:54.171Z,4.99
2023-02-14T19:04:02.352Z,4.92
2023-02-14T19:09:08.982Z,4.87
2023-02-14T19:14:15.953Z,4.72
2023-02-14T19:19:20.310Z,4.62
2023-02-14T19:24:25.557Z,4.47
2023-02-14T19:29:34.001Z,4.40
2023-02-14T19:34:36.341Z,4.40
2023-02-14T19:39:41.014Z,4.35
2023-02-14T19:44:46.269Z,4.32
2023-02-14T19:49:50.527Z,4.36
2023-02-14T19:54:57.705Z,4.15
2023-02-14T20:00:06.802Z,4.02
2023-02-14T20:05:13.842Z,3.96
2023-02-14T20:10:25.533Z,3.86
2023-02-14T20:15:29.060Z,3.82
2023-02-14T20:20:50.755Z,3.79
2023-02-14T20:25:54.886Z,3.69
2023-02-14T20:30:59.206Z,3.56
2023-02-14T20:36:07.165Z,3.50
2023-02-14T20:41:13.631Z,3.46
2023-02-14T20:46:18.562Z,3.33
2023-02-14T20:51:24.114Z,3.27
2023-02-14T20:56:25.939Z,3.21
2023-02-14T21:01:28.355Z,3.14
2023-02-14T21:06:35.453Z,3.03
2023-02-14T21:11:37.560Z,2.96
2023-02-14T21:16:41.405Z,2.85
2023-02-14T21:21:48.665Z,2.87
2023-02-14T21:26:50.442Z,2.78
2023-02-14T21:31:54.514Z,2.68
2023-02-14T21:36:58.808Z,2.55
2023-02-14T21:42:02.334Z,2.46
2023-02-14T21:47:04.388Z,2.34
2023-02-14T21:52:08.331Z,2.27
2023-02-14T21:57:12.460Z,2.24
2023-02-14T22:02:17.068Z,2.18
2023-02-14T22:07:20.501Z,2.10
2023-02-14T22:12:22.411Z,1.99
2023-02-14T22:17:28.293Z,1.96
2023-02-14T22:22:30.074Z,1.93
2023-02-14T22:27:31.790Z,1.85
2023-02-14T22:32:33.444Z,1.80
2023-02-14T22:37:37.517Z,1.74
2023-02-14T22:42:39.472Z,1.64
2023-02-14T22:47:44.231Z,1.61
2023-02-14T22:52:48.939Z,1.66
2023-02-14T22:57:55.903Z,1.59
2023-02-14T23:02:59.840Z,1.53
2023-02-14T23:08:03.894Z,1.47
2023-02-14T23:13:24.174Z,1.42
2023-02-14T23:18:44.321Z,1.34
2023-02-14T23:23:48.336Z,1.33
2023-02-14T23:28:50.058Z,1.28
2023-02-14T23:33:54.194Z,1.19
2023-02-14T23:38:56.175Z,1.13
2023-02-14T23:43:57.916Z,1.12
2023-02-14T23:48:59.641Z,1.20
2023-02-14T23:54:01.552Z,1.34
2023-02-14T23:59:05.383Z,1.25
